Terminal Aerodrome Forecast
Issued by NWS Boston, MA

Current Version | Previous Version | Text Only | Print | Product List | Glossary On
Versions: 1 2 3 4 5 6 7 8 9 10 11 12 13 14 15
000 FTUS41 KBOX 232320 TAFORH TAF KORH 232320Z 2400/2424 32016G30KT P6SM BKN045 FM240200 32016G28KT P6SM SCT045 FM241100 32018G37KT P6SM SKC FM242200 32016G28KT P6SM SKC=

USA.gov is the U.S. government's official web portal to all federal, state and local government web resources and services.